sensor_id;sensor_type;location;lat;lon;timestamp;pressure;altitude;pressure_sealevel;temperature;humidity
64503;BME280;50971;51.940;21.258;2024-01-15T00:00:37;98523.98;;;0.71;100.00
64503;BME280;50971;51.940;21.258;2024-01-15T00:10:38;98508.78;;;0.78;100.00
64503;BME280;50971;51.940;21.258;2024-01-15T00:20:42;98489.16;;;0.70;100.00
64503;BME280;50971;51.940;21.258;2024-01-15T00:30:44;98477.61;;;0.72;100.00
64503;BME280;50971;51.940;21.258;2024-01-15T00:40:46;98457.27;;;0.71;100.00
64503;BME280;50971;51.940;21.258;2024-01-15T00:50:47;98436.56;;;0.68;100.00
64503;BME280;50971;51.940;21.258;2024-01-15T01:00:49;98430.92;;;0.55;100.00
64503;BME280;50971;51.940;21.258;2024-01-15T01:10:51;98412.51;;;0.57;100.00
64503;BME280;50971;51.940;21.258;2024-01-15T01:20:53;98395.38;;;0.64;100.00
64503;BME280;50971;51.940;21.258;2024-01-15T01:30:55;98380.09;;;0.67;100.00
64503;BME280;50971;51.940;21.258;2024-01-15T01:40:56;98373.10;;;0.67;100.00
64503;BME280;50971;51.940;21.258;2024-01-15T01:51:00;98366.46;;;0.54;100.00
64503;BME280;50971;51.940;21.258;2024-01-15T02:01:03;98355.45;;;0.57;100.00
64503;BME280;50971;51.940;21.258;2024-01-15T02:11:06;98342.27;;;0.65;100.00
64503;BME280;50971;51.940;21.258;2024-01-15T02:21:09;98335.55;;;0.59;100.00
64503;BME280;50971;51.940;21.258;2024-01-15T02:31:11;98326.41;;;0.63;100.00
64503;BME280;50971;51.940;21.258;2024-01-15T02:41:13;98312.82;;;0.68;100.00
64503;BME280;50971;51.940;21.258;2024-01-15T02:51:15;98298.06;;;0.56;100.00
64503;BME280;50971;51.940;21.258;2024-01-15T03:01:20;98285.38;;;0.51;100.00
64503;BME280;50971;51.940;21.258;2024-01-15T03:11:24;98278.61;;;0.53;100.00
64503;BME280;50971;51.940;21.258;2024-01-15T03:21:25;98262.85;;;0.48;100.00
64503;BME280;50971;51.940;21.258;2024-01-15T03:31:27;98240.45;;;0.45;100.00
64503;BME280;50971;51.940;21.258;2024-01-15T03:41:29;98222.05;;;0.32;100.00
64503;BME280;50971;51.940;21.258;2024-01-15T03:51:31;98220.77;;;0.18;100.00
64503;BME280;50971;51.940;21.258;2024-01-15T04:01:33;98202.95;;;0.15;100.00
64503;BME280;50971;51.940;21.258;2024-01-15T04:11:35;98187.48;;;0.25;100.00
64503;BME280;50971;51.940;21.258;2024-01-15T04:21:36;98181.80;;;0.36;100.00
64503;BME280;50971;51.940;21.258;2024-01-15T04:31:38;98161.33;;;0.30;100.00
64503;BME280;50971;51.940;21.258;2024-01-15T04:41:40;98147.80;;;0.35;100.00
64503;BME280;50971;51.940;21.258;2024-01-15T04:51:42;98131.03;;;0.41;100.00
64503;BME280;50971;51.940;21.258;2024-01-15T05:01:44;98116.92;;;0.44;100.00
64503;BME280;50971;51.940;21.258;2024-01-15T05:11:46;98104.70;;;0.31;100.00
64503;BME280;50971;51.940;21.258;2024-01-15T05:21:47;98106.23;;;0.30;100.00
64503;BME280;50971;51.940;21.258;2024-01-15T05:31:49;98107.39;;;0.35;100.00
64503;BME280;50971;51.940;21.258;2024-01-15T05:41:51;98106.83;;;0.44;100.00
64503;BME280;50971;51.940;21.258;2024-01-15T05:51:53;98105.95;;;0.42;100.00
64503;BME280;50971;51.940;21.258;2024-01-15T06:01:55;98100.02;;;0.53;100.00
64503;BME280;50971;51.940;21.258;2024-01-15T06:11:57;98097.12;;;0.48;100.00
64503;BME280;50971;51.940;21.258;2024-01-15T06:21:59;98094.47;;;0.45;100.00
64503;BME280;50971;51.940;21.258;2024-01-15T06:32:01;98087.07;;;0.54;100.00
64503;BME280;50971;51.940;21.258;2024-01-15T06:42:03;98069.73;;;0.52;100.00
64503;BME280;50971;51.940;21.258;2024-01-15T06:52:05;98070.07;;;0.54;100.00
64503;BME280;50971;51.940;21.258;2024-01-15T07:02:07;98064.16;;;0.66;100.00
64503;BME280;50971;51.940;21.258;2024-01-15T07:12:09;98062.36;;;0.64;100.00
64503;BME280;50971;51.940;21.258;2024-01-15T07:22:11;98057.23;;;0.75;100.00
64503;BME280;50971;51.940;21.258;2024-01-15T07:32:13;98054.08;;;0.83;100.00
64503;BME280;50971;51.940;21.258;2024-01-15T07:42:15;98048.02;;;0.84;100.00
64503;BME280;50971;51.940;21.258;2024-01-15T07:52:17;98051.88;;;1.03;100.00
64503;BME280;50971;51.940;21.258;2024-01-15T08:02:18;98059.23;;;1.34;100.00
64503;BME280;50971;51.940;21.258;2024-01-15T08:12:20;98056.55;;;1.33;100.00
64503;BME280;50971;51.940;21.258;2024-01-15T08:22:22;98050.34;;;1.52;100.00
64503;BME280;50971;51.940;21.258;2024-01-15T08:32:24;98049.74;;;1.79;100.00
64503;BME280;50971;51.940;21.258;2024-01-15T08:42:25;98058.02;;;1.43;100.00
64503;BME280;50971;51.940;21.258;2024-01-15T08:52:27;98063.69;;;1.08;100.00
64503;BME280;50971;51.940;21.258;2024-01-15T09:02:30;98064.58;;;0.99;100.00
64503;BME280;50971;51.940;21.258;2024-01-15T09:12:32;98069.40;;;1.03;100.00
64503;BME280;50971;51.940;21.258;2024-01-15T09:22:34;98081.27;;;1.29;100.00
64503;BME280;50971;51.940;21.258;2024-01-15T09:32:36;98094.98;;;1.39;100.00
64503;BME280;50971;51.940;21.258;2024-01-15T09:42:38;98082.80;;;1.71;100.00
64503;BME280;50971;51.940;21.258;2024-01-15T09:52:40;98055.00;;;2.21;100.00
64503;BME280;50971;51.940;21.258;2024-01-15T10:02:42;98043.01;;;2.54;100.00
64503;BME280;50971;51.940;21.258;2024-01-15T10:12:44;98043.58;;;2.90;100.00
64503;BME280;50971;51.940;21.258;2024-01-15T10:22:46;98047.86;;;3.44;100.00
64503;BME280;50971;51.940;21.258;2024-01-15T10:32:58;98046.95;;;3.69;100.00
64503;BME280;50971;51.940;21.258;2024-01-15T10:43:01;98052.40;;;3.71;100.00
64503;BME280;50971;51.940;21.258;2024-01-15T10:53:04;98049.85;;;3.68;100.00
64503;BME280;50971;51.940;21.258;2024-01-15T11:03:06;98053.41;;;3.68;100.00
64503;BME280;50971;51.940;21.258;2024-01-15T11:13:54;98056.89;;;3.78;100.00
64503;BME280;50971;51.940;21.258;2024-01-15T11:23:46;98046.63;;;3.98;100.00
64503;BME280;50971;51.940;21.258;2024-01-15T11:33:54;98041.73;;;4.47;100.00
64503;BME280;50971;51.940;21.258;2024-01-15T11:43:57;98029.89;;;4.52;100.00
64503;BME280;50971;51.940;21.258;2024-01-15T11:54:01;98021.80;;;4.69;100.00
64503;BME280;50971;51.940;21.258;2024-01-15T12:04:06;98015.41;;;4.76;100.00
64503;BME280;50971;51.940;21.258;2024-01-15T12:14:10;98013.73;;;4.51;100.00
64503;BME280;50971;51.940;21.258;2024-01-15T12:24:12;98022.58;;;3.93;100.00
64503;BME280;50971;51.940;21.258;2024-01-15T12:34:14;98021.30;;;3.54;100.00
64503;BME280;50971;51.940;21.258;2024-01-15T12:44:16;98015.30;;;3.38;100.00
64503;BME280;50971;51.940;21.258;2024-01-15T12:54:18;98009.09;;;3.11;100.00
64503;BME280;50971;51.940;21.258;2024-01-15T13:04:24;98008.64;;;2.87;100.00
64503;BME280;50971;51.940;21.258;2024-01-15T13:14:28;98013.27;;;2.72;100.00
64503;BME280;50971;51.940;21.258;2024-01-15T13:24:30;98015.25;;;2.25;100.00
64503;BME280;50971;51.940;21.258;2024-01-15T13:34:32;98023.70;;;1.74;100.00
64503;BME280;50971;51.940;21.258;2024-01-15T13:44:34;98032.38;;;1.34;100.00
64503;BME280;50971;51.940;21.258;2024-01-15T13:54:36;98029.48;;;1.14;100.00
64503;BME280;50971;51.940;21.258;2024-01-15T14:04:50;98037.27;;;1.18;100.00
64503;BME280;50971;51.940;21.258;2024-01-15T14:14:52;98042.81;;;0.98;100.00
64503;BME280;50971;51.940;21.258;2024-01-15T14:24:53;98037.15;;;0.84;100.00
64503;BME280;50971;51.940;21.258;2024-01-15T14:34:56;98040.36;;;0.60;100.00
64503;BME280;50971;51.940;21.258;2024-01-15T14:44:58;98046.52;;;0.49;100.00
64503;BME280;50971;51.940;21.258;2024-01-15T14:55:00;98047.63;;;0.18;100.00
64503;BME280;50971;51.940;21.258;2024-01-15T15:05:03;98041.80;;;0.09;100.00
64503;BME280;50971;51.940;21.258;2024-01-15T15:15:05;98046.45;;;-0.04;100.00
64503;BME280;50971;51.940;21.258;2024-01-15T15:25:13;98054.48;;;-0.01;100.00
64503;BME280;50971;51.940;21.258;2024-01-15T15:35:14;98049.03;;;0.01;100.00
64503;BME280;50971;51.940;21.258;2024-01-15T15:45:16;98039.55;;;-0.06;100.00
64503;BME280;50971;51.940;21.258;2024-01-15T15:55:18;98031.48;;;-0.42;100.00
64503;BME280;50971;51.940;21.258;2024-01-15T16:05:20;98041.08;;;-0.52;100.00
64503;BME280;50971;51.940;21.258;2024-01-15T16:15:24;98040.36;;;-0.42;100.00
64503;BME280;50971;51.940;21.258;2024-01-15T16:25:26;98036.30;;;-0.27;100.00
64503;BME280;50971;51.940;21.258;2024-01-15T16:35:29;98024.59;;;-0.17;100.00
64503;BME280;50971;51.940;21.258;2024-01-15T16:45:31;98022.94;;;-0.21;100.00
64503;BME280;50971;51.940;21.258;2024-01-15T16:55:34;98024.71;;;-0.30;100.00
64503;BME280;50971;51.940;21.258;2024-01-15T17:05:36;98020.52;;;-0.37;100.00
64503;BME280;50971;51.940;21.258;2024-01-15T17:15:38;98013.58;;;-0.25;100.00
64503;BME280;50971;51.940;21.258;2024-01-15T17:25:39;98010.17;;;-0.24;100.00
64503;BME280;50971;51.940;21.258;2024-01-15T17:35:50;98011.04;;;-0.20;100.00
64503;BME280;50971;51.940;21.258;2024-01-15T17:45:53;98008.71;;;-0.43;100.00
64503;BME280;50971;51.940;21.258;2024-01-15T17:55:56;98013.22;;;-0.64;100.00
64503;BME280;50971;51.940;21.258;2024-01-15T18:05:58;98014.90;;;-0.77;100.00
64503;BME280;50971;51.940;21.258;2024-01-15T18:16:01;98021.59;;;-0.64;100.00
64503;BME280;50971;51.940;21.258;2024-01-15T18:26:04;98026.25;;;-0.52;100.00
64503;BME280;50971;51.940;21.258;2024-01-15T18:36:06;98026.41;;;-0.43;100.00
64503;BME280;50971;51.940;21.258;2024-01-15T18:46:08;98023.65;;;-0.50;100.00
64503;BME280;50971;51.940;21.258;2024-01-15T18:56:10;98033.02;;;-0.66;100.00
64503;BME280;50971;51.940;21.258;2024-01-15T19:06:12;98055.80;;;-0.67;100.00
64503;BME280;50971;51.940;21.258;2024-01-15T19:16:16;98075.36;;;-0.71;100.00
64503;BME280;50971;51.940;21.258;2024-01-15T19:26:23;98105.86;;;-0.65;100.00
64503;BME280;50971;51.940;21.258;2024-01-15T19:36:25;98118.75;;;-0.74;100.00
64503;BME280;50971;51.940;21.258;2024-01-15T19:46:28;98126.88;;;-0.71;100.00
64503;BME280;50971;51.940;21.258;2024-01-15T19:56:30;98154.05;;;-0.65;100.00
64503;BME280;50971;51.940;21.258;2024-01-15T20:06:31;98159.73;;;-0.64;100.00
64503;BME280;50971;51.940;21.258;2024-01-15T20:16:33;98167.23;;;-0.67;100.00
64503;BME280;50971;51.940;21.258;2024-01-15T20:26:35;98174.02;;;-0.94;100.00
64503;BME280;50971;51.940;21.258;2024-01-15T20:36:37;98190.80;;;-1.15;100.00
64503;BME280;50971;51.940;21.258;2024-01-15T20:46:39;98205.17;;;-1.13;100.00
64503;BME280;50971;51.940;21.258;2024-01-15T20:56:41;98213.13;;;-1.08;100.00
64503;BME280;50971;51.940;21.258;2024-01-15T21:06:43;98226.86;;;-1.20;100.00
64503;BME280;50971;51.940;21.258;2024-01-15T21:16:45;98246.66;;;-1.38;100.00
64503;BME280;50971;51.940;21.258;2024-01-15T21:26:48;98261.68;;;-1.47;100.00
64503;BME280;50971;51.940;21.258;2024-01-15T21:36:50;98273.05;;;-1.36;100.00
64503;BME280;50971;51.940;21.258;2024-01-15T21:46:51;98289.38;;;-1.52;100.00
64503;BME280;50971;51.940;21.258;2024-01-15T21:56:53;98300.92;;;-1.64;100.00
64503;BME280;50971;51.940;21.258;2024-01-15T22:06:55;98316.70;;;-1.52;100.00
64503;BME280;50971;51.940;21.258;2024-01-15T22:16:57;98325.77;;;-1.50;100.00
64503;BME280;50971;51.940;21.258;2024-01-15T22:26:58;98334.84;;;-1.69;100.00
64503;BME280;50971;51.940;21.258;2024-01-15T22:37:00;98356.86;;;-1.79;100.00
64503;BME280;50971;51.940;21.258;2024-01-15T22:47:02;98379.95;;;-1.67;100.00
64503;BME280;50971;51.940;21.258;2024-01-15T22:57:04;98400.65;;;-1.68;100.00
64503;BME280;50971;51.940;21.258;2024-01-15T23:07:06;98418.75;;;-1.90;100.00
64503;BME280;50971;51.940;21.258;2024-01-15T23:17:07;98432.23;;;-1.89;100.00
64503;BME280;50971;51.940;21.258;2024-01-15T23:27:09;98446.96;;;-1.98;100.00
64503;BME280;50971;51.940;21.258;2024-01-15T23:37:11;98457.41;;;-2.17;100.00
64503;BME280;50971;51.940;21.258;2024-01-15T23:47:13;98466.17;;;-2.33;100.00
64503;BME280;50971;51.940;21.258;2024-01-15T23:57:14;98478.28;;;-2.66;100.00
